createdAt,value
2019-06-10T00:00:36.258Z,17.50
2019-06-10T00:05:41.793Z,17.50
2019-06-10T00:10:46.945Z,17.60
2019-06-10T00:15:51.966Z,17.60
2019-06-10T00:20:57.215Z,17.70
2019-06-10T00:26:04.900Z,17.70
2019-06-10T00:31:11.304Z,17.70
2019-06-10T00:36:15.419Z,17.70
2019-06-10T00:41:21.877Z,17.70
2019-06-10T00:46:27.090Z,17.70
2019-06-10T00:51:32.049Z,17.70
2019-06-10T00:56:36.914Z,17.80
2019-06-10T01:01:41.992Z,17.80
2019-06-10T01:06:46.895Z,17.80
2019-06-10T01:11:52.106Z,17.90
2019-06-10T01:16:57.194Z,17.90
2019-06-10T01:22:02.133Z,18.00
2019-06-10T01:27:07.548Z,18.00
2019-06-10T01:32:14.901Z,18.00
2019-06-10T01:37:21.582Z,18.00
2019-06-10T01:42:25.890Z,18.00
2019-06-10T01:47:31.067Z,17.90
2019-06-10T01:52:36.103Z,17.90
2019-06-10T01:57:41.389Z,17.90
2019-06-10T02:02:46.621Z,17.90
2019-06-10T02:07:51.728Z,17.90
2019-06-10T02:12:56.687Z,17.90
2019-06-10T02:18:01.664Z,18.00
2019-06-10T02:23:07.847Z,18.00
2019-06-10T02:28:14.559Z,18.00
2019-06-10T02:33:27.861Z,18.00
2019-06-10T02:38:33.874Z,18.00
2019-06-10T02:43:37.571Z,18.00
2019-06-10T02:48:43.383Z,17.90
2019-06-10T02:53:46.910Z,17.90
2019-06-10T02:58:53.444Z,18.00
2019-06-10T03:03:58.709Z,18.10
2019-06-10T03:09:04.687Z,18.20
2019-06-10T03:14:09.694Z,18.30
2019-06-10T03:19:15.788Z,18.30
2019-06-10T03:24:22.368Z,18.40
2019-06-10T03:29:28.228Z,18.40
2019-06-10T03:34:41.172Z,18.50
2019-06-10T03:39:42.534Z,18.50
2019-06-10T03:44:46.534Z,18.60
2019-06-10T03:49:53.478Z,18.60
2019-06-10T03:54:57.986Z,18.60
2019-06-10T04:00:10.663Z,18.60
2019-06-10T04:05:13.095Z,18.80
2019-06-10T04:10:17.598Z,18.90
2019-06-10T04:15:25.162Z,19.00
2019-06-10T04:20:29.642Z,19.20
2019-06-10T04:25:37.559Z,19.40
2019-06-10T04:30:43.217Z,19.50
2019-06-10T04:35:51.877Z,19.60
2019-06-10T04:40:56.266Z,19.70
2019-06-10T04:46:02.308Z,19.90
2019-06-10T04:51:07.671Z,20.00
2019-06-10T04:56:12.701Z,20.10
2019-06-10T05:01:18.865Z,20.20
2019-06-10T05:06:25.777Z,20.30
2019-06-10T05:11:32.945Z,20.40
2019-06-10T05:16:37.337Z,20.50
2019-06-10T05:21:42.607Z,20.80
2019-06-10T05:26:47.681Z,20.90
2019-06-10T05:31:52.715Z,21.10
2019-06-10T05:36:57.861Z,21.20
2019-06-10T05:42:03.355Z,21.20
2019-06-10T05:47:08.554Z,21.40
2019-06-10T05:52:13.518Z,21.50
2019-06-10T05:57:18.558Z,21.60
2019-06-10T06:02:23.915Z,21.70
2019-06-10T06:07:29.194Z,21.90
2019-06-10T06:12:35.715Z,22.30
2019-06-10T06:17:42.980Z,22.50
2019-06-10T06:22:47.602Z,22.90
2019-06-10T06:27:52.613Z,23.30
2019-06-10T06:32:57.553Z,23.90
2019-06-10T06:38:02.719Z,23.90
2019-06-10T06:43:07.795Z,23.60
2019-06-10T06:48:15.055Z,23.90
2019-06-10T06:53:30.174Z,24.20
2019-06-10T06:58:26.803Z,24.70
2019-06-10T07:03:35.285Z,24.70
2019-06-10T07:08:43.551Z,24.80
2019-06-10T07:13:47.710Z,24.90
2019-06-10T07:18:53.989Z,24.90
2019-06-10T07:23:59.227Z,25.40
2019-06-10T07:29:05.492Z,25.90
2019-06-10T07:34:12.778Z,26.60
2019-06-10T07:39:17.295Z,27.40
2019-06-10T07:44:22.729Z,26.90
2019-06-10T07:49:27.906Z,26.50
2019-06-10T07:54:33.315Z,26.90
2019-06-10T07:59:39.571Z,27.10
2019-06-10T08:04:45.966Z,26.80
2019-06-10T08:09:53.332Z,26.60
2019-06-10T08:14:58.070Z,26.30
2019-06-10T08:20:03.238Z,26.20
2019-06-10T08:25:08.748Z,26.20
2019-06-10T08:30:22.240Z,26.50
2019-06-10T08:35:35.877Z,27.00
2019-06-10T08:40:27.099Z,27.90
2019-06-10T08:45:33.329Z,28.80
2019-06-10T08:50:39.369Z,29.10
2019-06-10T08:55:46.586Z,29.40
2019-06-10T09:00:53.538Z,29.60
2019-06-10T09:05:58.609Z,30.20
2019-06-10T09:11:03.676Z,31.20
2019-06-10T09:16:15.531Z,31.40
2019-06-10T09:21:16.649Z,31.00
2019-06-10T09:26:22.870Z,30.20
2019-06-10T09:31:28.087Z,29.70
2019-06-10T09:36:33.178Z,29.70
2019-06-10T09:41:43.255Z,30.50
2019-06-10T09:46:51.249Z,31.20
2019-06-10T09:51:57.507Z,32.00
2019-06-10T09:57:03.285Z,32.30
2019-06-10T10:02:08.559Z,32.50
2019-06-10T10:07:14.333Z,32.80
2019-06-10T10:12:19.500Z,33.20
2019-06-10T10:17:26.947Z,33.60
2019-06-10T10:22:33.583Z,33.70
2019-06-10T10:27:38.707Z,34.10
2019-06-10T10:32:47.075Z,34.00
2019-06-10T10:37:54.211Z,34.10
2019-06-10T10:43:16.286Z,33.90
2019-06-10T10:48:04.887Z,33.10
2019-06-10T10:53:09.939Z,32.70
2019-06-10T10:58:15.038Z,33.10
2019-06-10T11:03:22.632Z,33.00
2019-06-10T11:08:26.785Z,32.70
2019-06-10T11:13:34.815Z,32.40
2019-06-10T11:18:42.273Z,32.20
2019-06-10T11:23:48.090Z,32.30
2019-06-10T11:28:55.615Z,32.30
2019-06-10T11:33:59.907Z,32.40
2019-06-10T11:39:07.182Z,32.40
2019-06-10T11:44:12.143Z,32.30
2019-06-10T11:49:17.177Z,32.50
2019-06-10T11:54:23.438Z,32.30
2019-06-10T11:59:28.802Z,32.20
2019-06-10T12:04:33.850Z,32.60
2019-06-10T12:09:38.834Z,33.10
2019-06-10T12:14:43.988Z,33.90
2019-06-10T12:19:49.819Z,33.80
2019-06-10T12:25:24.179Z,34.40
2019-06-10T12:30:04.857Z,34.50
2019-06-10T12:35:08.894Z,34.20
2019-06-10T12:40:15.702Z,34.20
2019-06-10T12:45:23.222Z,34.20
2019-06-10T12:50:27.903Z,34.00
2019-06-10T12:55:42.275Z,34.00
2019-06-10T13:00:48.967Z,34.60
2019-06-10T13:05:55.895Z,35.70
2019-06-10T13:11:02.089Z,36.60
2019-06-10T13:16:10.142Z,36.80
2019-06-10T13:21:17.538Z,36.80
2019-06-10T13:26:23.001Z,36.30
2019-06-10T13:31:27.130Z,35.70
2019-06-10T13:36:33.085Z,35.40
2019-06-10T13:41:38.351Z,35.40
2019-06-10T13:46:43.477Z,36.10
2019-06-10T13:51:49.042Z,36.70
2019-06-10T13:56:54.094Z,37.00
2019-06-10T14:01:59.829Z,37.40
2019-06-10T14:07:08.674Z,38.00
2019-06-10T14:12:16.660Z,37.90
2019-06-10T14:17:19.579Z,38.10
2019-06-10T14:22:25.400Z,38.30
2019-06-10T14:27:30.346Z,38.70
2019-06-10T14:32:35.296Z,39.30
2019-06-10T14:37:42.860Z,39.40
2019-06-10T14:42:46.934Z,39.60
2019-06-10T14:47:54.262Z,39.40
2019-06-10T14:52:58.641Z,39.20
2019-06-10T14:58:03.694Z,38.90
2019-06-10T15:03:09.990Z,38.90
2019-06-10T15:08:16.841Z,39.40
2019-06-10T15:13:23.413Z,39.60
2019-06-10T15:18:28.358Z,39.80
2019-06-10T15:23:33.318Z,40.10
2019-06-10T15:28:38.370Z,39.30
2019-06-10T15:33:43.482Z,37.70
2019-06-10T15:38:49.475Z,37.00
2019-06-10T15:43:54.454Z,37.40
2019-06-10T15:49:02.179Z,37.90
2019-06-10T15:54:06.058Z,38.00
2019-06-10T15:59:13.292Z,39.20
2019-06-10T16:04:19.301Z,40.60
2019-06-10T16:09:24.379Z,41.30
2019-06-10T16:14:29.491Z,41.70
2019-06-10T16:19:34.584Z,41.60
2019-06-10T16:24:42.178Z,40.80
2019-06-10T16:29:46.334Z,39.90
2019-06-10T16:34:52.239Z,40.20
2019-06-10T16:39:57.331Z,40.10
2019-06-10T16:45:02.629Z,39.60
2019-06-10T16:50:12.045Z,40.20
2019-06-10T16:55:17.464Z,39.90
2019-06-10T17:00:25.717Z,39.40
2019-06-10T17:05:30.504Z,39.50
2019-06-10T17:10:36.034Z,39.30
2019-06-10T17:15:42.357Z,39.00
2019-06-10T17:20:47.492Z,38.40
2019-06-10T17:25:55.841Z,37.80
2019-06-10T17:31:03.448Z,37.70
2019-06-10T17:36:08.269Z,37.50
2019-06-10T17:41:13.468Z,37.30
2019-06-10T17:46:18.490Z,37.10
2019-06-10T17:51:26.190Z,36.20
2019-06-10T17:56:31.860Z,35.30
2019-06-10T18:01:36.959Z,34.70
2019-06-10T18:06:42.554Z,33.80
2019-06-10T18:11:47.634Z,33.00
2019-06-10T18:16:52.686Z,32.40
2019-06-10T18:21:57.734Z,31.60
2019-06-10T18:27:02.635Z,30.90
2019-06-10T18:32:07.686Z,30.10
2019-06-10T18:37:12.750Z,29.60
2019-06-10T18:42:17.881Z,29.30
2019-06-10T18:47:23.054Z,29.00
2019-06-10T18:52:28.048Z,28.70
2019-06-10T18:57:34.491Z,28.40
2019-06-10T19:02:39.856Z,28.10
2019-06-10T19:07:46.778Z,27.80
2019-06-10T19:12:53.187Z,27.30
2019-06-10T19:17:58.246Z,26.90
2019-06-10T19:23:03.248Z,26.60
2019-06-10T19:28:08.364Z,26.40
2019-06-10T19:33:13.360Z,26.20
2019-06-10T19:38:18.382Z,26.10
2019-06-10T19:43:23.380Z,25.80
2019-06-10T19:48:28.337Z,25.60
2019-06-10T19:53:34.584Z,25.50
2019-06-10T19:58:40.897Z,25.20
2019-06-10T20:03:47.129Z,24.90
2019-06-10T20:08:52.340Z,24.60
2019-06-10T20:13:57.491Z,24.30
2019-06-10T20:19:03.091Z,24.10
2019-06-10T20:24:09.382Z,23.90
2019-06-10T20:29:15.274Z,23.70
2019-06-10T20:34:22.682Z,23.50
2019-06-10T20:39:29.388Z,23.30
2019-06-10T20:44:33.562Z,23.10
2019-06-10T20:49:39.554Z,23.00
2019-06-10T20:54:46.339Z,22.90
2019-06-10T20:59:51.510Z,22.80
2019-06-10T21:04:57.774Z,22.60
2019-06-10T21:10:03.290Z,22.40
2019-06-10T21:15:08.458Z,22.30
2019-06-10T21:20:13.514Z,22.20
2019-06-10T21:25:18.578Z,22.10
2019-06-10T21:30:37.088Z,22.00
2019-06-10T21:35:30.313Z,21.90
2019-06-10T21:40:35.266Z,21.70
2019-06-10T21:45:42.492Z,21.50
2019-06-10T21:50:48.628Z,21.40
2019-06-10T21:55:55.208Z,21.40
2019-06-10T22:01:09.750Z,21.30
2019-06-10T22:06:07.279Z,21.20
2019-06-10T22:11:13.882Z,21.20
2019-06-10T22:16:19.037Z,21.20
2019-06-10T22:21:24.084Z,21.20
2019-06-10T22:26:29.046Z,21.20
2019-06-10T22:31:34.004Z,21.30
2019-06-10T22:36:39.031Z,21.30
2019-06-10T22:41:44.091Z,21.40
2019-06-10T22:46:49.612Z,21.40
2019-06-10T22:51:58.026Z,21.40
2019-06-10T22:57:02.868Z,21.40
2019-06-10T23:02:08.276Z,21.50
2019-06-10T23:07:13.414Z,21.50
2019-06-10T23:12:18.724Z,21.50
2019-06-10T23:17:23.775Z,21.60
2019-06-10T23:22:28.778Z,21.60
2019-06-10T23:27:33.907Z,21.50
2019-06-10T23:32:38.967Z,21.40
2019-06-10T23:37:43.947Z,21.40
2019-06-10T23:42:48.979Z,21.40
2019-06-10T23:47:56.154Z,21.40
2019-06-10T23:53:06.650Z,21.40
2019-06-10T23:58:07.319Z,21.50
